Time;durP1;ratioP1;P1;durP2;ratioP2;P2;SDS_P1;SDS_P2;PMS_P1;PMS_P2;Temp;Humidity;BMP_temperature;BMP_pressure;BME280_temperature;BME280_humidity;BME280_pressure;Samples;Min_cycle;Max_cycle;Signal;HPM_P1;HPM_P2
2022/03/18 00:01:02;;;;;;;15.30;9.15;;;;;;;;;;5011009;28;20207;-75
2022/03/18 00:03:31;;;;;;;13.98;9.32;;;;;;;;;;5010647;28;20227;-75
2022/03/18 00:05:58;;;;;;;13.48;7.85;;;;;;;;;;5011358;28;20583;-75
2022/03/18 00:08:25;;;;;;;11.15;8.15;;;;;;;;;;5010781;28;20211;-75
2022/03/18 00:10:55;;;;;;;14.18;9.95;;;;;;;;;;5007549;28;20201;-76
2022/03/18 00:13:22;;;;;;;11.07;7.45;;;;;;;;;;4998341;28;20216;-77
2022/03/18 00:15:50;;;;;;;13.73;8.45;;;;;;;;;;5004420;28;20685;-77
2022/03/18 00:18:17;;;;;;;16.45;9.07;;;;;;;;;;5010852;28;20558;-75
2022/03/18 00:20:46;;;;;;;9.98;7.50;;;;;;;;;;5010692;28;20562;-75
2022/03/18 00:23:13;;;;;;;15.38;8.93;;;;;;;;;;5010591;28;20243;-75
2022/03/18 00:25:41;;;;;;;14.60;8.02;;;;;;;;;;5011386;28;20204;-77
2022/03/18 00:28:09;;;;;;;13.20;9.20;;;;;;;;;;5011031;28;20208;-75
2022/03/18 00:30:36;;;;;;;11.65;7.32;;;;;;;;;;4998718;28;20205;-76
2022/03/18 00:33:03;;;;;;;10.43;8.02;;;;;;;;;;4996947;28;20224;-76
2022/03/18 00:35:31;;;;;;;12.68;9.15;;;;;;;;;;4990848;28;20209;-76
2022/03/18 00:38:02;;;;;;;14.30;9.55;;;;;;;;;;4991168;28;20224;-75
2022/03/18 00:40:29;;;;;;;15.50;8.95;;;;;;;;;;4991175;28;20208;-76
2022/03/18 00:42:56;;;;;;;14.95;9.65;;;;;;;;;;4991339;28;20228;-75
2022/03/18 00:45:24;;;;;;;17.55;9.75;;;;;;;;;;4992582;28;20213;-76
2022/03/18 00:53:14;;;;;;;11.00;8.80;;;;;;;;;;4997392;28;20224;-76
2022/03/18 00:55:42;;;;;;;13.40;9.27;;;;;;;;;;4997673;28;20204;-77
2022/03/18 00:58:09;;;;;;;11.75;7.93;;;;;;;;;;4990647;28;20239;-75
2022/03/18 01:00:36;;;;;;;15.35;7.88;;;;;;;;;;4990779;28;20212;-75
2022/03/18 01:03:03;;;;;;;11.55;8.07;;;;;;;;;;4991068;28;20231;-75
2022/03/18 01:05:31;;;;;;;13.38;8.00;;;;;;;;;;4991293;28;20207;-77
2022/03/18 01:07:58;;;;;;;12.32;7.93;;;;;;;;;;5001156;28;20218;-76
2022/03/18 01:10:27;;;;;;;9.88;8.20;;;;;;;;;;5012659;28;20200;-76
2022/03/18 01:12:54;;;;;;;10.63;7.75;;;;;;;;;;5012585;28;20717;-76
2022/03/18 01:15:21;;;;;;;11.38;8.73;;;;;;;;;;4999438;28;20214;-77
2022/03/18 01:17:48;;;;;;;12.70;8.88;;;;;;;;;;4998455;28;20204;-76
2022/03/18 01:20:15;;;;;;;12.73;8.45;;;;;;;;;;4990561;28;20216;-76
2022/03/18 01:22:42;;;;;;;12.25;7.95;;;;;;;;;;4990469;28;20244;-79
2022/03/18 01:25:10;;;;;;;12.65;9.20;;;;;;;;;;4990875;28;20212;-76
2022/03/18 01:27:39;;;;;;;10.85;8.60;;;;;;;;;;4991456;28;20200;-76
2022/03/18 01:30:08;;;;;;;12.52;8.88;;;;;;;;;;4991611;28;20216;-75
2022/03/18 01:32:35;;;;;;;10.70;8.50;;;;;;;;;;4992634;28;20279;-76
2022/03/18 01:35:02;;;;;;;13.63;8.95;;;;;;;;;;4992519;28;20204;-75
2022/03/18 01:37:30;;;;;;;13.73;8.68;;;;;;;;;;4996835;28;20204;-76
2022/03/18 01:39:57;;;;;;;12.50;9.20;;;;;;;;;;4997817;28;20231;-77
2022/03/18 01:42:24;;;;;;;11.88;9.63;;;;;;;;;;4991487;28;20307;-77
2022/03/18 01:44:52;;;;;;;16.50;8.93;;;;;;;;;;4992109;28;20228;-76
2022/03/18 01:47:20;;;;;;;11.70;9.43;;;;;;;;;;4994147;28;20204;-77
2022/03/18 01:49:47;;;;;;;12.15;8.90;;;;;;;;;;4994514;28;20211;-77
2022/03/18 01:52:14;;;;;;;15.90;8.85;;;;;;;;;;4997518;28;20228;-77
2022/03/18 01:54:48;;;;;;;11.90;8.82;;;;;;;;;;5015748;28;20567;-77
2022/03/18 01:57:18;;;;;;;12.43;9.52;;;;;;;;;;5015558;28;20290;-75
2022/03/18 01:59:45;;;;;;;15.60;9.25;;;;;;;;;;5006068;28;20595;-76
2022/03/18 02:02:14;;;;;;;14.40;9.35;;;;;;;;;;5001453;28;20211;-77
2022/03/18 02:04:42;;;;;;;12.68;9.77;;;;;;;;;;5010810;28;20568;-78
2022/03/18 02:07:09;;;;;;;11.63;9.30;;;;;;;;;;5013274;28;20215;-76
2022/03/18 02:09:37;;;;;;;11.13;8.77;;;;;;;;;;5013425;28;20200;-77
2022/03/18 02:12:04;;;;;;;12.05;8.98;;;;;;;;;;5013699;28;20234;-75
2022/03/18 02:14:32;;;;;;;14.25;10.35;;;;;;;;;;4996074;28;20208;-76
2022/03/18 02:16:59;;;;;;;14.50;9.40;;;;;;;;;;5015346;28;20230;-76
2022/03/18 02:19:27;;;;;;;16.92;9.80;;;;;;;;;;5015309;28;20228;-79
2022/03/18 02:21:55;;;;;;;17.33;10.70;;;;;;;;;;5008121;28;20227;-77
2022/03/18 02:24:24;;;;;;;14.45;10.68;;;;;;;;;;4983822;28;20291;-78
2022/03/18 02:26:52;;;;;;;14.32;10.55;;;;;;;;;;4979071;28;20204;-75
2022/03/18 02:29:19;;;;;;;16.52;11.00;;;;;;;;;;4976122;28;20603;-78
2022/03/18 02:31:46;;;;;;;14.90;10.05;;;;;;;;;;4993520;28;20239;-77
2022/03/18 02:34:13;;;;;;;15.15;10.68;;;;;;;;;;4969896;28;20229;-77
2022/03/18 02:36:41;;;;;;;14.18;9.25;;;;;;;;;;4991820;28;20200;-78
2022/03/18 02:39:08;;;;;;;13.40;10.18;;;;;;;;;;5012241;28;20237;-75
2022/03/18 02:41:37;;;;;;;14.15;11.20;;;;;;;;;;5014588;28;20558;-76
2022/03/18 02:44:04;;;;;;;14.75;11.50;;;;;;;;;;5010373;28;20205;-77
2022/03/18 02:46:32;;;;;;;18.13;10.95;;;;;;;;;;5000630;28;20575;-74
2022/03/18 02:49:00;;;;;;;17.58;11.32;;;;;;;;;;5005220;28;20562;-76
2022/03/18 02:51:27;;;;;;;12.95;10.57;;;;;;;;;;5012721;28;20257;-76
2022/03/18 02:53:54;;;;;;;16.80;10.85;;;;;;;;;;4995190;28;20203;-77
2022/03/18 02:56:22;;;;;;;20.95;11.80;;;;;;;;;;5011834;28;20736;-76
2022/03/18 02:58:50;;;;;;;17.35;11.70;;;;;;;;;;4995904;28;20223;-76
2022/03/18 03:01:18;;;;;;;20.50;11.25;;;;;;;;;;5013731;28;20210;-76
2022/03/18 03:03:45;;;;;;;15.85;10.50;;;;;;;;;;4996998;28;20587;-77
2022/03/18 03:08:53;;;;;;;15.32;10.60;;;;;;;;;;4998872;28;20189;-77
2022/03/18 03:11:22;;;;;;;16.38;11.25;;;;;;;;;;4997918;28;20208;-77
2022/03/18 03:13:51;;;;;;;17.65;11.95;;;;;;;;;;4992674;28;20228;-76
2022/03/18 03:16:19;;;;;;;18.40;11.07;;;;;;;;;;4992459;28;20210;-77
2022/03/18 03:18:46;;;;;;;21.08;12.07;;;;;;;;;;4975298;28;20231;-76
2022/03/18 03:21:13;;;;;;;15.63;11.95;;;;;;;;;;4992829;28;20211;-76
2022/03/18 03:23:40;;;;;;;18.50;12.45;;;;;;;;;;5005280;28;20232;-77
2022/03/18 03:26:08;;;;;;;17.77;12.95;;;;;;;;;;5014023;28;20577;-77
2022/03/18 03:28:35;;;;;;;23.92;13.65;;;;;;;;;;5013893;28;20210;-77
2022/03/18 03:31:04;;;;;;;17.98;12.27;;;;;;;;;;4999694;28;20208;-77
2022/03/18 03:33:33;;;;;;;16.73;12.02;;;;;;;;;;4983935;28;20220;-77
2022/03/18 03:36:00;;;;;;;16.92;12.75;;;;;;;;;;4994287;28;20212;-79
2022/03/18 03:38:27;;;;;;;14.50;10.50;;;;;;;;;;5011611;28;20208;-76
2022/03/18 03:40:54;;;;;;;16.55;11.43;;;;;;;;;;5011747;28;20894;-77
2022/03/18 03:43:21;;;;;;;16.02;12.00;;;;;;;;;;5012014;28;20235;-76
2022/03/18 03:45:49;;;;;;;19.83;11.32;;;;;;;;;;5012470;28;20200;-75
2022/03/18 03:48:17;;;;;;;17.38;11.73;;;;;;;;;;5013417;28;20303;-76
2022/03/18 03:50:44;;;;;;;14.25;10.57;;;;;;;;;;5013330;28;20559;-77
2022/03/18 03:53:12;;;;;;;14.32;10.93;;;;;;;;;;5000913;28;20231;-76
2022/03/18 03:55:40;;;;;;;18.45;12.02;;;;;;;;;;4999154;28;20283;-77
2022/03/18 03:58:08;;;;;;;14.60;10.73;;;;;;;;;;5011007;28;20227;-76
2022/03/18 04:00:36;;;;;;;13.77;10.25;;;;;;;;;;5011083;28;20250;-78
2022/03/18 04:03:04;;;;;;;15.98;10.75;;;;;;;;;;4993985;28;20254;-77
2022/03/18 04:05:32;;;;;;;15.50;12.23;;;;;;;;;;5011866;28;20243;-77
2022/03/18 04:07:59;;;;;;;18.13;10.95;;;;;;;;;;5011038;28;20569;-75
2022/03/18 04:10:27;;;;;;;14.77;10.23;;;;;;;;;;4996042;28;20200;-77
2022/03/18 04:12:54;;;;;;;14.50;10.45;;;;;;;;;;5013218;28;20319;-77
2022/03/18 04:15:21;;;;;;;15.75;10.50;;;;;;;;;;5002344;28;20200;-78
2022/03/18 04:17:49;;;;;;;12.77;9.57;;;;;;;;;;4998924;28;20219;-79
2022/03/18 04:20:17;;;;;;;16.58;11.07;;;;;;;;;;4992443;28;20224;-78
2022/03/18 04:22:46;;;;;;;12.98;9.13;;;;;;;;;;4977399;28;20260;-77
2022/03/18 04:25:13;;;;;;;11.20;8.93;;;;;;;;;;4991433;28;20530;-76
2022/03/18 04:27:41;;;;;;;13.23;9.32;;;;;;;;;;4991798;28;20651;-75
2022/03/18 04:30:09;;;;;;;15.50;9.68;;;;;;;;;;4991710;28;20215;-77
2022/03/18 04:32:36;;;;;;;14.98;9.93;;;;;;;;;;4993092;28;20231;-76
2022/03/18 04:35:04;;;;;;;13.10;8.25;;;;;;;;;;4993276;28;20204;-76
2022/03/18 04:37:31;;;;;;;14.23;9.00;;;;;;;;;;4996677;28;21050;-76
2022/03/18 04:40:01;;;;;;;14.65;8.63;;;;;;;;;;4998611;28;20235;-77
2022/03/18 04:42:28;;;;;;;13.88;8.95;;;;;;;;;;5007602;28;20323;-76
2022/03/18 04:44:55;;;;;;;12.70;9.48;;;;;;;;;;5010416;28;20736;-78
2022/03/18 04:47:22;;;;;;;14.35;8.90;;;;;;;;;;5010711;28;20211;-79
2022/03/18 04:49:49;;;;;;;12.57;8.48;;;;;;;;;;5011326;28;20203;-77
2022/03/18 04:52:16;;;;;;;13.68;8.48;;;;;;;;;;5010832;28;20251;-77
2022/03/18 04:54:44;;;;;;;12.63;8.73;;;;;;;;;;5012641;28;20243;-76
2022/03/18 04:57:19;;;;;;;12.40;8.23;;;;;;;;;;5012491;28;20665;-77
2022/03/18 04:59:47;;;;;;;12.40;8.68;;;;;;;;;;5005489;28;20627;-76
2022/03/18 05:02:15;;;;;;;11.85;8.23;;;;;;;;;;4998507;28;20286;-75
2022/03/18 05:04:42;;;;;;;15.07;9.27;;;;;;;;;;5005559;28;20548;-78
2022/03/18 05:07:11;;;;;;;13.63;8.65;;;;;;;;;;5009043;28;20200;-77
2022/03/18 05:09:38;;;;;;;16.30;9.07;;;;;;;;;;5009157;28;20218;-79
2022/03/18 05:12:06;;;;;;;14.25;8.00;;;;;;;;;;5009604;28;20585;-82
2022/03/18 05:14:35;;;;;;;13.07;8.43;;;;;;;;;;5011189;28;20211;-78
2022/03/18 05:17:02;;;;;;;13.23;8.60;;;;;;;;;;5012039;28;20207;-80
2022/03/18 05:19:30;;;;;;;16.40;9.50;;;;;;;;;;5013718;28;20223;-77
2022/03/18 05:21:57;;;;;;;17.25;9.35;;;;;;;;;;5010363;28;20256;-78
2022/03/18 05:24:25;;;;;;;15.82;9.52;;;;;;;;;;5001986;28;20204;-76
2022/03/18 05:26:52;;;;;;;17.38;9.90;;;;;;;;;;5007300;28;20204;-78
2022/03/18 05:29:20;;;;;;;14.38;9.68;;;;;;;;;;5014170;28;20231;-78
2022/03/18 05:31:48;;;;;;;16.85;10.65;;;;;;;;;;4996679;28;20661;-79
2022/03/18 05:34:15;;;;;;;13.80;9.75;;;;;;;;;;5014095;28;20215;-77
2022/03/18 05:36:43;;;;;;;17.08;10.20;;;;;;;;;;5014580;28;20211;-76
2022/03/18 05:39:11;;;;;;;17.55;11.35;;;;;;;;;;5015196;28;20212;-76
2022/03/18 05:41:38;;;;;;;13.90;9.32;;;;;;;;;;5015969;28;20204;-77
2022/03/18 05:44:06;;;;;;;15.73;9.32;;;;;;;;;;5014393;28;20204;-77
2022/03/18 05:46:33;;;;;;;13.98;10.30;;;;;;;;;;5001777;28;20287;-76
2022/03/18 05:49:01;;;;;;;13.45;9.80;;;;;;;;;;5004872;28;20493;-78
2022/03/18 05:51:29;;;;;;;14.10;10.68;;;;;;;;;;5013406;28;20200;-78
2022/03/18 05:53:56;;;;;;;15.95;10.45;;;;;;;;;;5013585;28;20204;-78
2022/03/18 05:59:06;;;;;;;13.05;9.55;;;;;;;;;;5013080;28;20262;-79
2022/03/18 06:01:33;;;;;;;17.50;10.15;;;;;;;;;;5014595;28;20230;-77
2022/03/18 06:04:02;;;;;;;15.70;9.90;;;;;;;;;;5015525;28;20239;-78
2022/03/18 06:06:29;;;;;;;14.45;10.02;;;;;;;;;;5014488;28;20603;-77
2022/03/18 06:14:19;;;;;;;14.07;10.35;;;;;;;;;;4978561;28;20208;-77
2022/03/18 06:16:47;;;;;;;15.88;10.00;;;;;;;;;;4993651;28;20286;-77
2022/03/18 06:19:16;;;;;;;15.55;10.20;;;;;;;;;;4993648;28;20260;-78
2022/03/18 06:21:44;;;;;;;16.95;10.30;;;;;;;;;;4993994;28;20212;-77
2022/03/18 06:24:11;;;;;;;18.83;10.25;;;;;;;;;;5007795;28;20232;-76
2022/03/18 06:26:38;;;;;;;15.27;9.98;;;;;;;;;;5014970;28;20554;-76
2022/03/18 06:29:06;;;;;;;22.85;10.82;;;;;;;;;;5013248;28;20653;-77
2022/03/18 06:31:33;;;;;;;15.77;10.45;;;;;;;;;;4982389;28;20562;-77
2022/03/18 06:34:01;;;;;;;16.20;8.98;;;;;;;;;;5003670;28;20584;-77
2022/03/18 06:36:29;;;;;;;11.02;9.80;;;;;;;;;;5012543;28;20212;-77
2022/03/18 06:38:57;;;;;;;17.65;9.93;;;;;;;;;;5012501;28;20219;-76
2022/03/18 06:41:25;;;;;;;11.93;8.45;;;;;;;;;;4995474;28;20220;-81
2022/03/18 06:43:52;;;;;;;17.15;8.45;;;;;;;;;;5013178;28;20204;-74
2022/03/18 06:46:19;;;;;;;11.85;8.32;;;;;;;;;;5013840;28;20204;-78
2022/03/18 06:48:47;;;;;;;11.73;7.55;;;;;;;;;;5014686;28;20573;-78
2022/03/18 06:51:14;;;;;;;11.45;9.20;;;;;;;;;;5014461;28;20558;-78
2022/03/18 06:53:43;;;;;;;11.02;8.40;;;;;;;;;;5000999;28;20228;-76
2022/03/18 06:56:12;;;;;;;16.50;8.82;;;;;;;;;;4983471;28;20442;-76
2022/03/18 06:58:39;;;;;;;15.10;8.40;;;;;;;;;;4992456;28;20667;-77
2022/03/18 07:01:06;;;;;;;11.32;8.10;;;;;;;;;;4992712;28;20221;-78
2022/03/18 07:03:33;;;;;;;15.38;8.13;;;;;;;;;;4992800;28;20225;-79
2022/03/18 07:06:01;;;;;;;13.75;8.95;;;;;;;;;;4993352;28;20304;-78
2022/03/18 07:08:28;;;;;;;10.40;7.60;;;;;;;;;;4999971;28;20606;-78
2022/03/18 07:10:56;;;;;;;10.10;7.30;;;;;;;;;;5014535;28;20688;-77
2022/03/18 07:13:24;;;;;;;10.98;8.73;;;;;;;;;;5014258;28;20314;-78
2022/03/18 07:15:51;;;;;;;15.27;9.20;;;;;;;;;;5003962;28;20288;-78
2022/03/18 07:18:17;;;;;;;9.87;7.23;;;;;;;;;;4999985;28;20448;-76
2022/03/18 07:20:44;;;;;;;14.90;7.17;;;;;;;;;;5009642;28;20481;-80
2022/03/18 07:23:16;;;;;;;13.83;7.70;;;;;;;;;;5000973;28;20597;-77
2022/03/18 07:25:43;;;;;;;14.20;8.40;;;;;;;;;;5011995;28;20442;-77
2022/03/18 07:28:12;;;;;;;13.30;7.53;;;;;;;;;;5012105;28;20447;-77
2022/03/18 07:30:41;;;;;;;13.57;8.10;;;;;;;;;;5011854;28;20459;-76
2022/03/18 07:33:08;;;;;;;14.33;6.30;;;;;;;;;;5001230;28;20973;-77
2022/03/18 07:35:36;;;;;;;9.07;5.90;;;;;;;;;;4999508;28;20446;-76
2022/03/18 07:38:05;;;;;;;10.23;5.60;;;;;;;;;;4991693;28;20458;-77
2022/03/18 07:40:32;;;;;;;11.53;4.80;;;;;;;;;;5004203;28;21093;-78
2022/03/18 07:42:59;;;;;;;8.53;5.37;;;;;;;;;;5010941;28;20979;-76
2022/03/18 07:45:29;;;;;;;8.20;4.90;;;;;;;;;;5010586;28;20944;-77
2022/03/18 07:47:57;;;;;;;9.20;6.20;;;;;;;;;;4992987;28;20456;-77
2022/03/18 07:50:25;;;;;;;10.03;6.37;;;;;;;;;;4996703;28;20526;-79
2022/03/18 07:52:53;;;;;;;8.47;5.80;;;;;;;;;;4999149;28;20459;-77
2022/03/18 07:55:21;;;;;;;8.97;5.70;;;;;;;;;;5007211;28;20534;-77
2022/03/18 07:57:49;;;;;;;10.00;5.50;;;;;;;;;;5009969;28;20443;-78
2022/03/18 08:00:17;;;;;;;8.70;5.10;;;;;;;;;;5010261;28;21009;-75
2022/03/18 08:02:46;;;;;;;12.43;4.80;;;;;;;;;;5012210;28;20554;-79
2022/03/18 08:05:13;;;;;;;10.60;4.70;;;;;;;;;;5010301;28;20809;-76
2022/03/18 08:07:41;;;;;;;6.80;4.87;;;;;;;;;;4988166;28;20439;-79
2022/03/18 08:10:09;;;;;;;13.70;5.30;;;;;;;;;;4990247;28;20448;-81
2022/03/18 08:12:37;;;;;;;9.80;5.40;;;;;;;;;;4992212;28;20468;-78
2022/03/18 08:15:09;;;;;;;12.30;5.17;;;;;;;;;;4995487;28;20450;-78
2022/03/18 08:17:37;;;;;;;8.60;5.33;;;;;;;;;;4990168;28;20534;-79
2022/03/18 08:20:07;;;;;;;5.90;4.33;;;;;;;;;;4988489;28;20997;-80
2022/03/18 08:22:35;;;;;;;8.83;5.07;;;;;;;;;;4987718;28;20545;-78
2022/03/18 08:25:03;;;;;;;9.80;5.30;;;;;;;;;;4987921;28;20538;-74
2022/03/18 08:27:32;;;;;;;9.07;5.60;;;;;;;;;;4988838;28;20562;-77
2022/03/18 08:29:59;;;;;;;8.43;4.97;;;;;;;;;;5005333;28;20465;-78
2022/03/18 08:32:27;;;;;;;8.63;4.50;;;;;;;;;;5009511;28;20463;-78
2022/03/18 08:34:54;;;;;;;7.97;4.70;;;;;;;;;;4988981;28;20458;-77
2022/03/18 08:40:04;;;;;;;9.23;5.00;;;;;;;;;;4977887;28;20925;-77
2022/03/18 08:42:31;;;;;;;8.43;4.37;;;;;;;;;;4988716;28;20947;-81
2022/03/18 08:44:58;;;;;;;10.90;5.93;;;;;;;;;;4988711;28;20444;-85
2022/03/18 08:47:26;;;;;;;8.77;4.20;;;;;;;;;;4988013;28;20459;-78
2022/03/18 08:49:53;;;;;;;8.53;4.23;;;;;;;;;;4988934;28;20448;-78
2022/03/18 08:52:20;;;;;;;9.50;4.90;;;;;;;;;;4971911;28;20498;-75
2022/03/18 08:54:49;;;;;;;9.63;5.50;;;;;;;;;;4998887;28;20439;-78
2022/03/18 08:57:16;;;;;;;8.40;5.00;;;;;;;;;;5005150;28;20979;-81
2022/03/18 08:59:44;;;;;;;8.73;5.07;;;;;;;;;;5014528;28;20929;-76
2022/03/18 09:02:11;;;;;;;13.37;5.50;;;;;;;;;;5013697;28;20496;-76
2022/03/18 09:04:38;;;;;;;11.40;6.33;;;;;;;;;;5014016;28;20795;-74
2022/03/18 09:07:05;;;;;;;7.70;5.10;;;;;;;;;;4996138;28;20442;-76
2022/03/18 09:09:33;;;;;;;9.90;4.53;;;;;;;;;;5014629;28;20470;-77
2022/03/18 09:12:02;;;;;;;7.90;4.50;;;;;;;;;;4997884;28;20474;-77
2022/03/18 09:14:29;;;;;;;6.77;4.53;;;;;;;;;;5012494;28;20463;-76
2022/03/18 09:16:56;;;;;;;6.03;4.10;;;;;;;;;;5000686;28;20461;-77
2022/03/18 09:19:23;;;;;;;10.43;5.37;;;;;;;;;;5001348;28;20446;-77
2022/03/18 09:21:51;;;;;;;8.13;4.83;;;;;;;;;;4993995;28;20522;-78
2022/03/18 09:24:18;;;;;;;6.53;4.00;;;;;;;;;;4993856;28;20440;-78
2022/03/18 09:26:45;;;;;;;8.87;4.67;;;;;;;;;;4993186;28;20448;-80
2022/03/18 09:29:14;;;;;;;6.00;4.10;;;;;;;;;;4987338;28;20817;-77
2022/03/18 09:31:41;;;;;;;8.43;4.57;;;;;;;;;;5004186;28;20475;-76
2022/03/18 09:34:08;;;;;;;7.53;4.80;;;;;;;;;;5002433;28;20822;-80
2022/03/18 09:36:35;;;;;;;10.70;5.60;;;;;;;;;;5009891;28;20513;-76
2022/03/18 09:39:02;;;;;;;8.83;5.30;;;;;;;;;;5015896;28;20470;-76
2022/03/18 09:41:30;;;;;;;6.13;4.20;;;;;;;;;;5015819;28;20481;-78
2022/03/18 09:43:58;;;;;;;6.50;4.90;;;;;;;;;;5016464;28;20799;-76
2022/03/18 09:46:26;;;;;;;8.97;4.77;;;;;;;;;;5012957;28;20447;-76
2022/03/18 09:48:54;;;;;;;6.70;3.70;;;;;;;;;;5004046;28;20845;-76
2022/03/18 09:51:21;;;;;;;5.83;4.00;;;;;;;;;;4998280;28;20423;-75
2022/03/18 09:53:49;;;;;;;4.77;3.93;;;;;;;;;;4998640;28;20463;-78
2022/03/18 09:56:16;;;;;;;6.53;4.13;;;;;;;;;;5003775;28;20444;-82
2022/03/18 09:58:43;;;;;;;5.53;3.60;;;;;;;;;;5006121;28;20453;-76
2022/03/18 10:01:10;;;;;;;6.40;3.50;;;;;;;;;;5016051;28;20470;-75
2022/03/18 10:03:39;;;;;;;5.77;3.97;;;;;;;;;;5011990;28;20471;-78
2022/03/18 10:06:07;;;;;;;6.47;3.67;;;;;;;;;;5013956;28;20453;-79
2022/03/18 10:08:50;;;;;;;4.73;3.63;;;;;;;;;;4990767;28;20440;-79
2022/03/18 10:11:18;;;;;;;8.90;4.33;;;;;;;;;;4979603;28;20470;-78
2022/03/18 10:13:53;;;;;;;6.03;3.73;;;;;;;;;;4995281;28;20460;-78
2022/03/18 10:16:36;;;;;;;6.77;3.63;;;;;;;;;;4995430;28;20772;-77
2022/03/18 10:19:05;;;;;;;5.73;3.60;;;;;;;;;;4984517;28;20968;-79
2022/03/18 10:21:32;;;;;;;8.57;3.77;;;;;;;;;;4987612;28;21257;-78
2022/03/18 10:24:07;;;;;;;7.20;4.00;;;;;;;;;;5013023;28;20481;-78
2022/03/18 10:26:35;;;;;;;8.40;4.70;;;;;;;;;;5013194;28;20446;-79
2022/03/18 10:29:03;;;;;;;6.40;3.30;;;;;;;;;;5013385;28;20526;-75
2022/03/18 10:31:30;;;;;;;9.67;3.00;;;;;;;;;;5012388;28;20505;-80
2022/03/18 10:39:23;;;;;;;6.10;3.33;;;;;;;;;;5008294;28;20447;-77
2022/03/18 10:41:50;;;;;;;7.60;3.70;;;;;;;;;;4997733;28;20836;-77
2022/03/18 10:44:18;;;;;;;4.23;3.33;;;;;;;;;;4989539;28;20442;-76
2022/03/18 10:46:45;;;;;;;5.60;3.27;;;;;;;;;;5010764;28;20456;-81
2022/03/18 10:49:12;;;;;;;4.23;3.27;;;;;;;;;;5012878;28;20435;-80
2022/03/18 10:51:40;;;;;;;4.17;2.70;;;;;;;;;;5011905;28;20481;-78
2022/03/18 10:54:08;;;;;;;5.57;3.10;;;;;;;;;;5012769;28;20459;-74
2022/03/18 10:56:50;;;;;;;7.63;3.20;;;;;;;;;;4998453;28;20464;-74
2022/03/18 10:59:17;;;;;;;6.30;2.57;;;;;;;;;;4987237;28;20940;-80
2022/03/18 11:01:44;;;;;;;5.37;3.27;;;;;;;;;;5009182;28;20553;-79
2022/03/18 11:04:12;;;;;;;5.10;2.40;;;;;;;;;;4999097;28;20451;-80
2022/03/18 11:06:40;;;;;;;3.50;2.73;;;;;;;;;;5002386;28;20446;-80
2022/03/18 11:09:07;;;;;;;5.63;2.60;;;;;;;;;;5011755;28;20438;-74
2022/03/18 11:11:34;;;;;;;2.27;1.60;;;;;;;;;;5008845;28;20439;-80
2022/03/18 11:14:04;;;;;;;6.83;1.60;;;;;;;;;;5011914;28;20435;-78
2022/03/18 11:16:33;;;;;;;2.30;1.20;;;;;;;;;;5011797;28;20439;-79
2022/03/18 11:19:03;;;;;;;3.10;1.13;;;;;;;;;;4986216;28;20455;-78
2022/03/18 11:21:38;;;;;;;1.67;1.30;;;;;;;;;;5005792;28;20479;-77
2022/03/18 11:24:08;;;;;;;1.73;1.10;;;;;;;;;;5009530;28;20470;-78
2022/03/18 11:26:36;;;;;;;1.70;1.27;;;;;;;;;;4998796;28;20810;-80
2022/03/18 11:29:07;;;;;;;1.80;1.10;;;;;;;;;;4995953;28;20546;-78
2022/03/18 11:31:34;;;;;;;1.57;1.00;;;;;;;;;;4991693;28;20922;-76
2022/03/18 11:34:10;;;;;;;3.20;1.30;;;;;;;;;;4991741;28;20459;-78
2022/03/18 11:36:37;;;;;;;2.30;1.40;;;;;;;;;;4997931;28;20455;-75
2022/03/18 11:39:07;;;;;;;1.20;1.00;;;;;;;;;;5010466;28;20451;-74
2022/03/18 11:41:49;;;;;;;3.00;1.70;;;;;;;;;;5006948;28;20480;-78
2022/03/18 11:44:31;;;;;;;2.80;1.43;;;;;;;;;;4997057;28;20439;-77
2022/03/18 11:47:18;;;;;;;1.67;1.10;;;;;;;;;;5009747;28;20509;-78
2022/03/18 11:49:46;;;;;;;3.73;1.20;;;;;;;;;;4997777;28;20456;-75
2022/03/18 11:52:13;;;;;;;2.03;1.20;;;;;;;;;;5005362;28;20456;-75
2022/03/18 11:54:51;;;;;;;1.40;1.30;;;;;;;;;;4998648;28;20502;-76
2022/03/18 11:57:34;;;;;;;2.80;1.47;;;;;;;;;;4991528;28;21121;-75
2022/03/18 12:00:05;;;;;;;2.70;1.40;;;;;;;;;;4990860;28;20475;-78
2022/03/18 12:02:33;;;;;;;1.50;1.20;;;;;;;;;;5005518;28;20482;-79
2022/03/18 12:05:00;;;;;;;1.80;1.30;;;;;;;;;;4992984;28;20463;-81
2022/03/18 12:07:30;;;;;;;2.03;1.20;;;;;;;;;;4996080;28;20201;-80
2022/03/18 12:09:59;;;;;;;2.20;1.30;;;;;;;;;;4997774;28;20546;-78
2022/03/18 12:12:29;;;;;;;4.30;1.87;;;;;;;;;;4996673;28;20468;-77
2022/03/18 12:14:57;;;;;;;2.70;1.50;;;;;;;;;;4990246;28;20451;-79
2022/03/18 12:17:24;;;;;;;1.40;1.10;;;;;;;;;;4999484;28;20463;-76
2022/03/18 12:19:53;;;;;;;1.57;1.23;;;;;;;;;;4993361;28;20543;-78
2022/03/18 12:22:21;;;;;;;2.10;1.37;;;;;;;;;;5011124;28;20483;-78
2022/03/18 12:24:49;;;;;;;2.33;1.50;;;;;;;;;;4999016;28;20474;-77
2022/03/18 12:27:19;;;;;;;2.20;1.30;;;;;;;;;;4997542;28;20499;-78
2022/03/18 12:29:46;;;;;;;2.50;1.40;;;;;;;;;;4981894;28;20451;-76
2022/03/18 12:32:15;;;;;;;1.27;1.00;;;;;;;;;;5004724;28;20471;-76
2022/03/18 12:34:51;;;;;;;1.73;0.90;;;;;;;;;;4991179;28;20519;-81
2022/03/18 12:37:20;;;;;;;1.67;1.30;;;;;;;;;;4978648;28;20457;-80
2022/03/18 12:39:48;;;;;;;3.10;1.33;;;;;;;;;;5010932;28;20463;-79
2022/03/18 12:42:16;;;;;;;3.10;1.40;;;;;;;;;;5006530;28;20909;-78
2022/03/18 12:44:47;;;;;;;1.93;1.20;;;;;;;;;;4996863;28;20911;-79
2022/03/18 12:47:15;;;;;;;1.53;1.10;;;;;;;;;;4997038;28;20466;-79
2022/03/18 12:49:42;;;;;;;1.63;1.37;;;;;;;;;;5008767;28;20454;-80
2022/03/18 12:52:10;;;;;;;2.37;1.10;;;;;;;;;;5000262;28;20956;-78
2022/03/18 12:54:37;;;;;;;2.27;1.33;;;;;;;;;;5010077;28;20454;-75
2022/03/18 12:57:08;;;;;;;1.40;1.07;;;;;;;;;;4998420;28;20476;-77
2022/03/18 12:59:36;;;;;;;3.30;1.50;;;;;;;;;;4991442;28;20820;-78
2022/03/18 13:04:45;;;;;;;2.80;1.50;;;;;;;;;;4955639;28;20455;-77
2022/03/18 13:07:13;;;;;;;2.40;1.30;;;;;;;;;;4968598;28;20446;-78
2022/03/18 13:09:48;;;;;;;2.40;1.47;;;;;;;;;;4965669;28;20462;-79
2022/03/18 13:12:23;;;;;;;1.80;1.30;;;;;;;;;;4968609;28;20898;-81
2022/03/18 13:14:53;;;;;;;2.80;1.30;;;;;;;;;;4967862;28;20531;-77
2022/03/18 13:17:23;;;;;;;2.07;1.30;;;;;;;;;;4968438;28;20539;-79
2022/03/18 13:19:51;;;;;;;1.27;1.00;;;;;;;;;;4959279;28;20504;-76
2022/03/18 13:22:20;;;;;;;1.37;1.10;;;;;;;;;;4960229;28;21068;-75
2022/03/18 13:24:47;;;;;;;1.70;1.10;;;;;;;;;;4968244;28;20967;-78
2022/03/18 13:27:15;;;;;;;3.20;1.20;;;;;;;;;;4968442;28;20506;-77
2022/03/18 13:35:10;;;;;;;3.47;1.47;;;;;;;;;;4978329;28;21025;-76
2022/03/18 13:37:37;;;;;;;2.37;1.50;;;;;;;;;;4998379;28;20438;-80
2022/03/18 13:40:12;;;;;;;2.70;1.50;;;;;;;;;;5004005;28;20443;-75
2022/03/18 13:42:41;;;;;;;2.13;1.20;;;;;;;;;;5014528;28;20997;-83
2022/03/18 13:45:08;;;;;;;1.60;1.40;;;;;;;;;;5013249;28;21103;-76
2022/03/18 13:47:50;;;;;;;2.90;1.50;;;;;;;;;;5014174;28;20469;-77
2022/03/18 13:50:19;;;;;;;3.30;1.40;;;;;;;;;;5013265;28;20513;-77
2022/03/18 13:52:48;;;;;;;2.47;1.40;;;;;;;;;;4999729;28;20495;-74
2022/03/18 13:55:30;;;;;;;1.70;1.20;;;;;;;;;;5000353;28;20533;-82
2022/03/18 13:57:57;;;;;;;5.17;1.30;;;;;;;;;;5008531;28;20445;-82
2022/03/18 14:00:26;;;;;;;2.40;1.10;;;;;;;;;;5013506;28;20447;-76
2022/03/18 14:03:03;;;;;;;1.80;1.10;;;;;;;;;;5013887;28;20559;-76
2022/03/18 14:05:32;;;;;;;3.70;1.20;;;;;;;;;;5014098;28;20485;-75
2022/03/18 14:08:00;;;;;;;2.63;1.20;;;;;;;;;;5012501;28;21006;-75
2022/03/18 14:10:42;;;;;;;5.47;1.40;;;;;;;;;;5014228;28;20448;-78
2022/03/18 14:13:10;;;;;;;2.60;1.30;;;;;;;;;;5014473;28;20822;-79
2022/03/18 14:15:38;;;;;;;3.23;1.17;;;;;;;;;;5007253;28;20518;-76
2022/03/18 14:18:07;;;;;;;3.40;1.50;;;;;;;;;;5001160;28;20947;-76
2022/03/18 14:20:37;;;;;;;2.20;1.17;;;;;;;;;;5009119;28;20439;-76
2022/03/18 14:23:19;;;;;;;2.07;1.33;;;;;;;;;;5011558;28;20571;-76
2022/03/18 14:25:46;;;;;;;1.93;1.40;;;;;;;;;;5012224;28;20449;-78
2022/03/18 14:28:18;;;;;;;2.43;1.10;;;;;;;;;;5004170;28;20472;-78
2022/03/18 14:30:46;;;;;;;1.67;1.30;;;;;;;;;;5013337;28;20558;-76
2022/03/18 14:33:14;;;;;;;4.70;1.77;;;;;;;;;;5015013;28;20760;-77
2022/03/18 14:35:42;;;;;;;2.50;1.57;;;;;;;;;;5011011;28;20513;-78
2022/03/18 14:38:09;;;;;;;2.23;1.70;;;;;;;;;;5000597;28;20947;-78
2022/03/18 14:40:36;;;;;;;1.80;1.50;;;;;;;;;;5003416;28;20564;-78
2022/03/18 14:43:04;;;;;;;3.60;1.80;;;;;;;;;;5012876;28;20489;-77
2022/03/18 14:45:32;;;;;;;4.30;1.87;;;;;;;;;;5012646;28;20442;-78
2022/03/18 14:48:00;;;;;;;3.20;1.93;;;;;;;;;;5009265;28;20461;-77
2022/03/18 14:50:27;;;;;;;4.13;1.87;;;;;;;;;;5010768;28;20965;-79
2022/03/18 14:52:56;;;;;;;5.40;2.30;;;;;;;;;;5008584;28;20562;-78
2022/03/18 14:58:05;;;;;;;2.57;2.00;;;;;;;;;;5008413;28;20443;-77
2022/03/18 15:00:33;;;;;;;3.40;1.80;;;;;;;;;;4996447;28;21025;-77
2022/03/18 15:03:00;;;;;;;4.33;1.90;;;;;;;;;;4999923;28;20544;-77
2022/03/18 15:05:27;;;;;;;2.67;2.03;;;;;;;;;;5008201;28;20526;-77
2022/03/18 15:07:56;;;;;;;3.83;1.63;;;;;;;;;;5008952;28;20461;-79
2022/03/18 15:10:23;;;;;;;5.20;2.30;;;;;;;;;;5008422;28;20967;-76
2022/03/18 15:12:50;;;;;;;3.77;2.03;;;;;;;;;;5010489;28;20862;-81
2022/03/18 15:15:18;;;;;;;4.10;2.43;;;;;;;;;;5009878;28;20496;-77